sensor_id;sensor_type;location;lat;lon;timestamp;pressure;altitude;pressure_sealevel;temperature;humidity
5812;BME280;2932;52.400;9.558;2023-03-24T00:00:40;99546.78;;;16.42;63.33
5812;BME280;2932;52.400;9.558;2023-03-24T00:03:06;99556.38;;;16.41;63.59
5812;BME280;2932;52.400;9.558;2023-03-24T00:05:32;99554.28;;;16.52;63.26
5812;BME280;2932;52.400;9.558;2023-03-24T00:07:57;99542.38;;;16.45;63.08
5812;BME280;2932;52.400;9.558;2023-03-24T00:10:24;99555.16;;;16.42;63.44
5812;BME280;2932;52.400;9.558;2023-03-24T00:12:54;99548.88;;;16.34;63.84
5812;BME280;2932;52.400;9.558;2023-03-24T00:15:20;99545.53;;;16.50;63.36
5812;BME280;2932;52.400;9.558;2023-03-24T00:17:46;99536.84;;;16.41;63.57
5812;BME280;2932;52.400;9.558;2023-03-24T00:20:15;99537.06;;;16.61;62.90
5812;BME280;2932;52.400;9.558;2023-03-24T00:22:43;99536.28;;;16.60;63.23
5812;BME280;2932;52.400;9.558;2023-03-24T00:25:18;99541.88;;;16.57;64.11
5812;BME280;2932;52.400;9.558;2023-03-24T00:27:44;99535.81;;;16.69;63.92
5812;BME280;2932;52.400;9.558;2023-03-24T00:30:13;99533.13;;;16.55;64.48
5812;BME280;2932;52.400;9.558;2023-03-24T00:32:39;99533.56;;;16.50;64.72
5812;BME280;2932;52.400;9.558;2023-03-24T00:35:06;99527.81;;;16.26;65.45
5812;BME280;2932;52.400;9.558;2023-03-24T00:37:34;99525.06;;;16.19;65.72
5812;BME280;2932;52.400;9.558;2023-03-24T00:40:03;99519.44;;;16.26;66.04
5812;BME280;2932;52.400;9.558;2023-03-24T00:42:33;99504.53;;;16.40;66.25
5812;BME280;2932;52.400;9.558;2023-03-24T00:44:59;99507.50;;;16.22;65.98
5812;BME280;2932;52.400;9.558;2023-03-24T00:47:25;99497.59;;;16.14;66.88
5812;BME280;2932;52.400;9.558;2023-03-24T00:49:51;99500.22;;;16.36;66.45
5812;BME280;2932;52.400;9.558;2023-03-24T00:52:21;99504.66;;;16.29;66.73
5812;BME280;2932;52.400;9.558;2023-03-24T00:54:49;99490.31;;;16.27;66.95
5812;BME280;2932;52.400;9.558;2023-03-24T00:57:15;99496.81;;;16.10;67.93
5812;BME280;2932;52.400;9.558;2023-03-24T00:59:48;99489.03;;;15.91;68.57
5812;BME280;2932;52.400;9.558;2023-03-24T01:02:19;99478.50;;;16.09;68.31
5812;BME280;2932;52.400;9.558;2023-03-24T01:04:47;99476.31;;;15.83;69.18
5812;BME280;2932;52.400;9.558;2023-03-24T01:07:18;99474.06;;;15.63;69.52
5812;BME280;2932;52.400;9.558;2023-03-24T01:09:45;99468.28;;;15.95;69.04
5812;BME280;2932;52.400;9.558;2023-03-24T01:12:19;99461.16;;;15.87;69.63
5812;BME280;2932;52.400;9.558;2023-03-24T01:14:45;99466.75;;;15.84;69.55
5812;BME280;2932;52.400;9.558;2023-03-24T01:17:11;99444.25;;;15.57;69.92
5812;BME280;2932;52.400;9.558;2023-03-24T01:19:37;99457.97;;;15.85;69.97
5812;BME280;2932;52.400;9.558;2023-03-24T01:22:04;99455.78;;;16.07;69.17
5812;BME280;2932;52.400;9.558;2023-03-24T01:24:30;99439.16;;;15.38;70.96
5812;BME280;2932;52.400;9.558;2023-03-24T01:26:55;99442.94;;;15.68;71.10
5812;BME280;2932;52.400;9.558;2023-03-24T01:29:21;99439.75;;;15.70;70.80
5812;BME280;2932;52.400;9.558;2023-03-24T01:31:46;99434.44;;;15.24;72.16
5812;BME280;2932;52.400;9.558;2023-03-24T01:34:11;99420.34;;;15.52;72.11
5812;BME280;2932;52.400;9.558;2023-03-24T01:36:37;99420.00;;;15.43;72.27
5812;BME280;2932;52.400;9.558;2023-03-24T01:39:02;99419.63;;;15.41;72.72
5812;BME280;2932;52.400;9.558;2023-03-24T01:41:35;99414.38;;;15.57;72.85
5812;BME280;2932;52.400;9.558;2023-03-24T01:44:21;99409.66;;;15.44;73.13
5812;BME280;2932;52.400;9.558;2023-03-24T01:46:46;99398.31;;;15.72;71.95
5812;BME280;2932;52.400;9.558;2023-03-24T01:49:11;99398.34;;;15.68;72.00
5812;BME280;2932;52.400;9.558;2023-03-24T01:51:43;99406.81;;;15.54;72.82
5812;BME280;2932;52.400;9.558;2023-03-24T01:54:15;99404.41;;;15.53;72.99
5812;BME280;2932;52.400;9.558;2023-03-24T01:56:44;99388.91;;;15.52;73.05
5812;BME280;2932;52.400;9.558;2023-03-24T01:59:18;99376.53;;;15.56;73.62
5812;BME280;2932;52.400;9.558;2023-03-24T02:01:45;99375.66;;;15.66;72.67
5812;BME280;2932;52.400;9.558;2023-03-24T02:04:11;99371.22;;;15.73;73.16
5812;BME280;2932;52.400;9.558;2023-03-24T02:06:38;99368.19;;;15.56;73.32
5812;BME280;2932;52.400;9.558;2023-03-24T02:09:06;99358.41;;;15.79;72.95
5812;BME280;2932;52.400;9.558;2023-03-24T02:11:33;99359.66;;;15.74;72.68
5812;BME280;2932;52.400;9.558;2023-03-24T02:13:59;99357.16;;;15.35;74.39
5812;BME280;2932;52.400;9.558;2023-03-24T02:22:12;99348.72;;;15.46;73.70
5812;BME280;2932;52.400;9.558;2023-03-24T02:30:48;99328.03;;;15.43;74.00
5812;BME280;2932;52.400;9.558;2023-03-24T02:44:11;99315.38;;;15.80;74.43
5812;BME280;2932;52.400;9.558;2023-03-24T02:46:54;99311.22;;;15.57;74.28
5812;BME280;2932;52.400;9.558;2023-03-24T02:49:32;99307.66;;;15.50;74.10
5812;BME280;2932;52.400;9.558;2023-03-24T02:52:09;99312.88;;;15.48;74.62
5812;BME280;2932;52.400;9.558;2023-03-24T02:54:45;99298.50;;;15.53;75.12
5812;BME280;2932;52.400;9.558;2023-03-24T02:57:29;99288.50;;;15.55;75.44
5812;BME280;2932;52.400;9.558;2023-03-24T03:00:06;99283.41;;;15.47;75.64
5812;BME280;2932;52.400;9.558;2023-03-24T03:02:38;99277.63;;;15.72;75.24
5812;BME280;2932;52.400;9.558;2023-03-24T03:05:14;99277.91;;;15.81;74.70
5812;BME280;2932;52.400;9.558;2023-03-24T03:07:42;99278.50;;;15.61;75.30
5812;BME280;2932;52.400;9.558;2023-03-24T03:10:20;99281.97;;;15.73;74.83
5812;BME280;2932;52.400;9.558;2023-03-24T03:12:51;99284.78;;;15.73;75.22
5812;BME280;2932;52.400;9.558;2023-03-24T03:15:22;99268.41;;;15.75;75.79
5812;BME280;2932;52.400;9.558;2023-03-24T03:17:55;99269.25;;;15.72;76.18
5812;BME280;2932;52.400;9.558;2023-03-24T03:20:25;99259.03;;;15.58;76.49
5812;BME280;2932;52.400;9.558;2023-03-24T03:23:01;99254.84;;;15.77;76.50
5812;BME280;2932;52.400;9.558;2023-03-24T03:25:33;99237.75;;;15.75;76.38
5812;BME280;2932;52.400;9.558;2023-03-24T03:28:04;99233.16;;;15.95;75.03
5812;BME280;2932;52.400;9.558;2023-03-24T03:30:37;99225.75;;;16.12;75.05
5812;BME280;2932;52.400;9.558;2023-03-24T03:33:09;99219.25;;;16.22;74.47
5812;BME280;2932;52.400;9.558;2023-03-24T03:35:42;99222.25;;;16.04;74.58
5812;BME280;2932;52.400;9.558;2023-03-24T03:40:59;99210.69;;;15.72;75.79
5812;BME280;2932;52.400;9.558;2023-03-24T03:43:29;99212.59;;;15.78;74.82
5812;BME280;2932;52.400;9.558;2023-03-24T03:45:55;99207.53;;;15.70;75.54
5812;BME280;2932;52.400;9.558;2023-03-24T03:48:22;99194.34;;;15.74;75.65
5812;BME280;2932;52.400;9.558;2023-03-24T03:50:51;99195.75;;;15.89;74.70
5812;BME280;2932;52.400;9.558;2023-03-24T03:53:18;99201.47;;;15.78;75.23
5812;BME280;2932;52.400;9.558;2023-03-24T03:55:45;99193.78;;;15.48;76.18
5812;BME280;2932;52.400;9.558;2023-03-24T03:58:11;99190.31;;;15.78;75.46
5812;BME280;2932;52.400;9.558;2023-03-24T04:00:38;99193.72;;;15.55;75.86
5812;BME280;2932;52.400;9.558;2023-03-24T04:12:16;99190.94;;;15.93;75.24
5812;BME280;2932;52.400;9.558;2023-03-24T04:20:27;99184.97;;;16.21;75.23
5812;BME280;2932;52.400;9.558;2023-03-24T04:23:18;99161.63;;;15.78;76.05
5812;BME280;2932;52.400;9.558;2023-03-24T04:29:07;99174.59;;;16.22;75.51
5812;BME280;2932;52.400;9.558;2023-03-24T04:31:46;99165.72;;;16.00;75.46
5812;BME280;2932;52.400;9.558;2023-03-24T04:34:19;99156.50;;;16.03;75.75
5812;BME280;2932;52.400;9.558;2023-03-24T04:37:09;99165.81;;;16.23;75.65
5812;BME280;2932;52.400;9.558;2023-03-24T04:39:39;99150.13;;;16.02;76.10
5812;BME280;2932;52.400;9.558;2023-03-24T04:42:11;99149.03;;;16.27;75.38
5812;BME280;2932;52.400;9.558;2023-03-24T04:44:38;99141.69;;;15.79;76.36
5812;BME280;2932;52.400;9.558;2023-03-24T04:47:07;99142.47;;;15.80;76.94
5812;BME280;2932;52.400;9.558;2023-03-24T04:49:36;99140.78;;;15.89;76.72
5812;BME280;2932;52.400;9.558;2023-03-24T04:52:02;99140.56;;;15.73;77.20
5812;BME280;2932;52.400;9.558;2023-03-24T04:54:27;99140.69;;;15.62;77.24
5812;BME280;2932;52.400;9.558;2023-03-24T04:56:55;99145.19;;;15.87;76.61
5812;BME280;2932;52.400;9.558;2023-03-24T04:59:22;99132.13;;;15.80;77.21
5812;BME280;2932;52.400;9.558;2023-03-24T05:01:47;99130.88;;;15.85;76.76
5812;BME280;2932;52.400;9.558;2023-03-24T05:04:21;99128.44;;;15.87;76.89
5812;BME280;2932;52.400;9.558;2023-03-24T05:06:47;99121.69;;;15.84;76.97
5812;BME280;2932;52.400;9.558;2023-03-24T05:09:14;99120.75;;;15.64;77.97
5812;BME280;2932;52.400;9.558;2023-03-24T05:11:42;99124.38;;;15.61;77.53
5812;BME280;2932;52.400;9.558;2023-03-24T05:14:07;99108.34;;;15.68;77.25
5812;BME280;2932;52.400;9.558;2023-03-24T05:16:32;99107.97;;;15.66;77.41
5812;BME280;2932;52.400;9.558;2023-03-24T05:18:58;99124.16;;;15.79;77.13
5812;BME280;2932;52.400;9.558;2023-03-24T05:21:23;99121.13;;;15.66;77.04
5812;BME280;2932;52.400;9.558;2023-03-24T05:23:48;99109.72;;;15.53;77.64
5812;BME280;2932;52.400;9.558;2023-03-24T05:26:14;99115.50;;;15.70;77.71
5812;BME280;2932;52.400;9.558;2023-03-24T05:28:39;99122.84;;;15.56;77.75
5812;BME280;2932;52.400;9.558;2023-03-24T05:31:05;99099.47;;;15.43;77.82
5812;BME280;2932;52.400;9.558;2023-03-24T05:33:30;99105.09;;;15.74;77.55
5812;BME280;2932;52.400;9.558;2023-03-24T05:35:55;99120.44;;;15.58;77.86
5812;BME280;2932;52.400;9.558;2023-03-24T05:38:20;99109.19;;;15.65;77.86
5812;BME280;2932;52.400;9.558;2023-03-24T05:40:46;99097.91;;;15.76;77.17
5812;BME280;2932;52.400;9.558;2023-03-24T05:43:11;99107.50;;;15.72;77.42
5812;BME280;2932;52.400;9.558;2023-03-24T05:45:37;99119.78;;;15.78;76.90
5812;BME280;2932;52.400;9.558;2023-03-24T05:48:03;99099.16;;;15.72;76.98
5812;BME280;2932;52.400;9.558;2023-03-24T05:50:28;99101.81;;;15.48;78.58
5812;BME280;2932;52.400;9.558;2023-03-24T05:52:54;99122.72;;;15.29;79.17
5812;BME280;2932;52.400;9.558;2023-03-24T05:55:20;99122.69;;;15.33;79.40
5812;BME280;2932;52.400;9.558;2023-03-24T05:57:46;99143.38;;;15.70;78.81
5812;BME280;2932;52.400;9.558;2023-03-24T06:00:12;99113.84;;;15.76;78.25
5812;BME280;2932;52.400;9.558;2023-03-24T06:02:45;99115.66;;;15.89;77.96
5812;BME280;2932;52.400;9.558;2023-03-24T06:05:11;99115.63;;;15.93;77.83
5812;BME280;2932;52.400;9.558;2023-03-24T06:07:38;99120.78;;;15.94;78.16
5812;BME280;2932;52.400;9.558;2023-03-24T06:10:07;99122.25;;;15.72;77.92
5812;BME280;2932;52.400;9.558;2023-03-24T06:12:34;99121.88;;;15.70;78.32
5812;BME280;2932;52.400;9.558;2023-03-24T06:15:00;99125.94;;;15.62;78.58
5812;BME280;2932;52.400;9.558;2023-03-24T06:17:27;99137.16;;;15.92;78.02
5812;BME280;2932;52.400;9.558;2023-03-24T06:19:53;99151.16;;;15.85;78.53
5812;BME280;2932;52.400;9.558;2023-03-24T06:22:27;99148.59;;;15.67;78.98
5812;BME280;2932;52.400;9.558;2023-03-24T06:24:52;99147.75;;;15.33;80.61
5812;BME280;2932;52.400;9.558;2023-03-24T06:27:21;99135.91;;;15.22;81.66
5812;BME280;2932;52.400;9.558;2023-03-24T06:29:49;99152.03;;;15.79;80.18
5812;BME280;2932;52.400;9.558;2023-03-24T06:32:17;99158.13;;;15.70;80.00
5812;BME280;2932;52.400;9.558;2023-03-24T06:34:43;99167.59;;;15.39;81.56
5812;BME280;2932;52.400;9.558;2023-03-24T06:37:09;99159.88;;;15.57;81.64
5812;BME280;2932;52.400;9.558;2023-03-24T06:39:34;99182.88;;;15.23;81.85
5812;BME280;2932;52.400;9.558;2023-03-24T06:41:59;99177.16;;;14.96;81.82
5812;BME280;2932;52.400;9.558;2023-03-24T06:44:25;99190.16;;;15.14;80.91
5812;BME280;2932;52.400;9.558;2023-03-24T06:46:50;99195.97;;;15.26;79.17
5812;BME280;2932;52.400;9.558;2023-03-24T06:49:15;99187.00;;;15.12;79.27
5812;BME280;2932;52.400;9.558;2023-03-24T06:51:41;99204.78;;;14.77;78.90
5812;BME280;2932;52.400;9.558;2023-03-24T06:54:06;99206.00;;;14.72;80.00
5812;BME280;2932;52.400;9.558;2023-03-24T06:56:31;99202.84;;;14.70;80.05
5812;BME280;2932;52.400;9.558;2023-03-24T06:58:59;99207.63;;;14.70;80.39
5812;BME280;2932;52.400;9.558;2023-03-24T07:01:24;99201.44;;;14.37;80.91
5812;BME280;2932;52.400;9.558;2023-03-24T07:03:50;99215.75;;;14.35;81.24
5812;BME280;2932;52.400;9.558;2023-03-24T07:06:16;99219.19;;;14.61;80.51
5812;BME280;2932;52.400;9.558;2023-03-24T07:08:42;99242.28;;;14.58;79.74
5812;BME280;2932;52.400;9.558;2023-03-24T07:11:09;99248.78;;;14.96;78.84
5812;BME280;2932;52.400;9.558;2023-03-24T07:13:35;99238.69;;;14.61;79.26
5812;BME280;2932;52.400;9.558;2023-03-24T07:16:00;99243.34;;;15.26;77.63
5812;BME280;2932;52.400;9.558;2023-03-24T07:18:26;99268.03;;;14.73;79.42
5812;BME280;2932;52.400;9.558;2023-03-24T07:20:51;99262.47;;;14.76;79.00
5812;BME280;2932;52.400;9.558;2023-03-24T07:23:17;99258.53;;;14.70;79.11
5812;BME280;2932;52.400;9.558;2023-03-24T07:25:42;99252.84;;;14.84;78.17
5812;BME280;2932;52.400;9.558;2023-03-24T07:28:08;99250.97;;;14.67;77.78
5812;BME280;2932;52.400;9.558;2023-03-24T07:30:34;99272.25;;;14.98;77.40
5812;BME280;2932;52.400;9.558;2023-03-24T07:33:00;99279.22;;;15.21;75.74
5812;BME280;2932;52.400;9.558;2023-03-24T07:35:27;99283.34;;;15.57;75.82
5812;BME280;2932;52.400;9.558;2023-03-24T07:37:56;99284.56;;;15.49;75.17
5812;BME280;2932;52.400;9.558;2023-03-24T07:40:22;99283.38;;;14.98;73.91
5812;BME280;2932;52.400;9.558;2023-03-24T07:42:47;99285.03;;;15.41;73.18
5812;BME280;2932;52.400;9.558;2023-03-24T07:45:13;99303.25;;;15.00;72.97
5812;BME280;2932;52.400;9.558;2023-03-24T07:47:42;99306.47;;;14.95;72.09
5812;BME280;2932;52.400;9.558;2023-03-24T07:50:08;99308.56;;;15.36;71.33
5812;BME280;2932;52.400;9.558;2023-03-24T07:52:38;99330.16;;;15.21;69.82
5812;BME280;2932;52.400;9.558;2023-03-24T07:55:06;99325.53;;;15.04;69.05
5812;BME280;2932;52.400;9.558;2023-03-24T07:57:33;99342.19;;;15.15;69.72
5812;BME280;2932;52.400;9.558;2023-03-24T08:00:04;99353.84;;;14.88;69.78
5812;BME280;2932;52.400;9.558;2023-03-24T08:02:40;99350.22;;;15.02;69.89
5812;BME280;2932;52.400;9.558;2023-03-24T08:05:07;99356.09;;;15.15;69.78
5812;BME280;2932;52.400;9.558;2023-03-24T08:07:34;99337.16;;;14.88;68.95
5812;BME280;2932;52.400;9.558;2023-03-24T08:09:59;99365.66;;;15.14;69.25
5812;BME280;2932;52.400;9.558;2023-03-24T08:12:25;99356.97;;;15.05;67.93
5812;BME280;2932;52.400;9.558;2023-03-24T08:14:50;99365.97;;;15.23;67.79
5812;BME280;2932;52.400;9.558;2023-03-24T08:17:15;99356.25;;;14.90;67.65
5812;BME280;2932;52.400;9.558;2023-03-24T08:19:41;99376.53;;;14.90;67.41
5812;BME280;2932;52.400;9.558;2023-03-24T08:22:06;99365.25;;;15.19;66.65
5812;BME280;2932;52.400;9.558;2023-03-24T08:24:32;99366.47;;;15.14;67.92
5812;BME280;2932;52.400;9.558;2023-03-24T08:26:57;99369.13;;;15.28;67.08
5812;BME280;2932;52.400;9.558;2023-03-24T08:29:26;99342.69;;;14.95;66.60
5812;BME280;2932;52.400;9.558;2023-03-24T08:31:52;99343.56;;;15.44;65.49
5812;BME280;2932;52.400;9.558;2023-03-24T08:34:17;99368.03;;;15.74;66.22
5812;BME280;2932;52.400;9.558;2023-03-24T08:36:43;99378.13;;;15.57;65.37
5812;BME280;2932;52.400;9.558;2023-03-24T08:39:09;99380.66;;;15.34;65.84
5812;BME280;2932;52.400;9.558;2023-03-24T08:41:35;99393.03;;;15.26;66.31
5812;BME280;2932;52.400;9.558;2023-03-24T08:44:04;99389.41;;;15.32;66.58
5812;BME280;2932;52.400;9.558;2023-03-24T08:46:30;99363.47;;;15.43;66.27
5812;BME280;2932;52.400;9.558;2023-03-24T08:48:57;99381.66;;;15.61;65.87
5812;BME280;2932;52.400;9.558;2023-03-24T08:51:22;99387.69;;;15.56;65.46
5812;BME280;2932;52.400;9.558;2023-03-24T08:53:48;99389.56;;;15.70;64.25
5812;BME280;2932;52.400;9.558;2023-03-24T08:56:15;99406.69;;;15.72;64.64
5812;BME280;2932;52.400;9.558;2023-03-24T08:58:41;99408.09;;;15.35;64.83
5812;BME280;2932;52.400;9.558;2023-03-24T09:01:06;99427.13;;;15.51;65.38
5812;BME280;2932;52.400;9.558;2023-03-24T09:03:31;99430.72;;;15.48;65.92
5812;BME280;2932;52.400;9.558;2023-03-24T09:05:57;99437.91;;;15.49;64.87
5812;BME280;2932;52.400;9.558;2023-03-24T09:08:23;99431.69;;;15.20;65.14
5812;BME280;2932;52.400;9.558;2023-03-24T09:10:49;99446.06;;;15.12;65.12
5812;BME280;2932;52.400;9.558;2023-03-24T09:13:16;99488.31;;;14.96;64.85
5812;BME280;2932;52.400;9.558;2023-03-24T09:15:49;99457.97;;;15.19;65.09
5812;BME280;2932;52.400;9.558;2023-03-24T09:18:16;99461.53;;;15.20;65.00
5812;BME280;2932;52.400;9.558;2023-03-24T09:20:43;99446.88;;;15.09;64.55
5812;BME280;2932;52.400;9.558;2023-03-24T09:23:09;99447.84;;;15.57;63.94
5812;BME280;2932;52.400;9.558;2023-03-24T09:25:35;99449.72;;;15.71;63.89
5812;BME280;2932;52.400;9.558;2023-03-24T09:28:00;99436.66;;;15.54;63.96
5812;BME280;2932;52.400;9.558;2023-03-24T09:30:26;99446.25;;;15.49;63.46
5812;BME280;2932;52.400;9.558;2023-03-24T09:32:51;99463.47;;;15.33;64.01
5812;BME280;2932;52.400;9.558;2023-03-24T09:35:17;99441.41;;;15.60;63.21
5812;BME280;2932;52.400;9.558;2023-03-24T09:37:42;99457.31;;;15.67;63.24
5812;BME280;2932;52.400;9.558;2023-03-24T09:40:18;99441.97;;;15.30;62.58
5812;BME280;2932;52.400;9.558;2023-03-24T09:42:48;99446.06;;;15.78;62.60
5812;BME280;2932;52.400;9.558;2023-03-24T09:45:17;99449.31;;;15.69;62.47
5812;BME280;2932;52.400;9.558;2023-03-24T09:47:51;99453.75;;;15.63;62.60
5812;BME280;2932;52.400;9.558;2023-03-24T09:50:28;99453.41;;;15.57;62.62
5812;BME280;2932;52.400;9.558;2023-03-24T09:53:03;99448.03;;;15.84;61.96
5812;BME280;2932;52.400;9.558;2023-03-24T09:55:31;99454.22;;;16.06;61.79
5812;BME280;2932;52.400;9.558;2023-03-24T09:58:02;99455.97;;;16.34;61.27
5812;BME280;2932;52.400;9.558;2023-03-24T10:00:31;99461.53;;;16.38;60.71
5812;BME280;2932;52.400;9.558;2023-03-24T10:02:59;99455.56;;;16.36;61.08
5812;BME280;2932;52.400;9.558;2023-03-24T10:05:34;99453.28;;;16.98;60.17
5812;BME280;2932;52.400;9.558;2023-03-24T10:08:27;99446.91;;;16.60;60.68
5812;BME280;2932;52.400;9.558;2023-03-24T10:13:54;99444.03;;;16.71;59.64
5812;BME280;2932;52.400;9.558;2023-03-24T10:16:35;99446.28;;;16.42;60.14
5812;BME280;2932;52.400;9.558;2023-03-24T10:19:25;99461.78;;;16.06;59.70
5812;BME280;2932;52.400;9.558;2023-03-24T10:22:02;99464.19;;;16.04;60.58
5812;BME280;2932;52.400;9.558;2023-03-24T10:24:41;99462.56;;;16.10;60.37
5812;BME280;2932;52.400;9.558;2023-03-24T10:29:46;99468.56;;;16.87;58.14
5812;BME280;2932;52.400;9.558;2023-03-24T10:34:41;99460.13;;;17.24;57.43
5812;BME280;2932;52.400;9.558;2023-03-24T10:37:10;99472.06;;;16.57;58.37
5812;BME280;2932;52.400;9.558;2023-03-24T10:39:37;99465.41;;;16.44;58.28
5812;BME280;2932;52.400;9.558;2023-03-24T10:42:03;99479.25;;;16.58;59.45
5812;BME280;2932;52.400;9.558;2023-03-24T10:44:29;99473.94;;;16.74;59.04
5812;BME280;2932;52.400;9.558;2023-03-24T10:46:57;99477.59;;;17.02;58.15
5812;BME280;2932;52.400;9.558;2023-03-24T10:49:23;99473.00;;;17.49;58.02
5812;BME280;2932;52.400;9.558;2023-03-24T10:51:51;99485.16;;;17.35;56.92
5812;BME280;2932;52.400;9.558;2023-03-24T10:54:19;99480.72;;;17.68;56.85
5812;BME280;2932;52.400;9.558;2023-03-24T10:59:21;99488.66;;;17.43;56.48
5812;BME280;2932;52.400;9.558;2023-03-24T11:01:54;99486.06;;;17.86;56.11
5812;BME280;2932;52.400;9.558;2023-03-24T11:04:20;99487.75;;;17.80;56.02
5812;BME280;2932;52.400;9.558;2023-03-24T11:09:25;99492.28;;;17.97;56.33
5812;BME280;2932;52.400;9.558;2023-03-24T11:11:51;99492.53;;;18.06;56.71
5812;BME280;2932;52.400;9.558;2023-03-24T11:14:27;99495.69;;;18.55;56.24
5812;BME280;2932;52.400;9.558;2023-03-24T11:17:02;99488.88;;;18.09;56.10
5812;BME280;2932;52.400;9.558;2023-03-24T11:19:34;99512.13;;;18.53;55.74
5812;BME280;2932;52.400;9.558;2023-03-24T11:22:02;99504.47;;;18.33;55.98
5812;BME280;2932;52.400;9.558;2023-03-24T11:24:34;99518.38;;;18.64;55.71
5812;BME280;2932;52.400;9.558;2023-03-24T11:27:01;99516.47;;;18.57;55.50
5812;BME280;2932;52.400;9.558;2023-03-24T11:29:30;99515.66;;;18.57;55.28
5812;BME280;2932;52.400;9.558;2023-03-24T11:31:57;99514.66;;;19.70;54.30
5812;BME280;2932;52.400;9.558;2023-03-24T11:34:29;99506.03;;;19.96;52.82
5812;BME280;2932;52.400;9.558;2023-03-24T11:37:19;99522.53;;;19.58;51.18
5812;BME280;2932;52.400;9.558;2023-03-24T11:42:43;99501.91;;;19.09;53.04
5812;BME280;2932;52.400;9.558;2023-03-24T11:47:50;99521.47;;;19.88;50.80
5812;BME280;2932;52.400;9.558;2023-03-24T11:50:22;99495.78;;;19.14;51.18
5812;BME280;2932;52.400;9.558;2023-03-24T11:53:39;99506.88;;;18.35;51.37
5812;BME280;2932;52.400;9.558;2023-03-24T11:55:43;99492.81;;;18.62;51.52
5812;BME280;2932;52.400;9.558;2023-03-24T11:58:21;99503.94;;;18.65;52.15
5812;BME280;2932;52.400;9.558;2023-03-24T12:00:59;99482.09;;;19.36;51.64
5812;BME280;2932;52.400;9.558;2023-03-24T12:17:27;99503.88;;;18.22;52.92
5812;BME280;2932;52.400;9.558;2023-03-24T12:20:25;99509.56;;;17.92;53.72
5812;BME280;2932;52.400;9.558;2023-03-24T12:34:09;99512.25;;;18.46;52.79
5812;BME280;2932;52.400;9.558;2023-03-24T12:39:52;99511.41;;;18.49;52.84
5812;BME280;2932;52.400;9.558;2023-03-24T12:42:22;99528.06;;;18.09;53.73
5812;BME280;2932;52.400;9.558;2023-03-24T12:45:16;99525.69;;;19.01;52.71
5812;BME280;2932;52.400;9.558;2023-03-24T13:01:02;99520.16;;;20.74;48.15
5812;BME280;2932;52.400;9.558;2023-03-24T13:06:10;99520.06;;;19.41;50.66
5812;BME280;2932;52.400;9.558;2023-03-24T13:08:38;99528.56;;;18.51;51.54
5812;BME280;2932;52.400;9.558;2023-03-24T13:11:09;99526.66;;;17.97;52.88
5812;BME280;2932;52.400;9.558;2023-03-24T13:13:40;99510.72;;;17.94;52.83
5812;BME280;2932;52.400;9.558;2023-03-24T13:16:19;99514.66;;;18.90;51.29
5812;BME280;2932;52.400;9.558;2023-03-24T13:18:52;99505.25;;;19.20;50.66
5812;BME280;2932;52.400;9.558;2023-03-24T13:21:21;99512.00;;;19.62;50.21
5812;BME280;2932;52.400;9.558;2023-03-24T13:24:06;99497.75;;;19.73;49.71
5812;BME280;2932;52.400;9.558;2023-03-24T13:31:51;99513.25;;;20.30;50.64
5812;BME280;2932;52.400;9.558;2023-03-24T13:34:35;99510.53;;;19.58;51.44
5812;BME280;2932;52.400;9.558;2023-03-24T13:37:04;99514.25;;;19.31;52.71
5812;BME280;2932;52.400;9.558;2023-03-24T13:39:33;99516.34;;;19.08;53.26
5812;BME280;2932;52.400;9.558;2023-03-24T13:42:00;99526.66;;;18.71;53.27
5812;BME280;2932;52.400;9.558;2023-03-24T13:47:11;99553.50;;;17.95;55.58
5812;BME280;2932;52.400;9.558;2023-03-24T13:49:38;99552.69;;;17.94;57.58
5812;BME280;2932;52.400;9.558;2023-03-24T13:52:12;99547.56;;;17.59;58.62
5812;BME280;2932;52.400;9.558;2023-03-24T13:54:45;99537.88;;;17.03;58.88
5812;BME280;2932;52.400;9.558;2023-03-24T13:57:19;99549.94;;;16.92;60.30
5812;BME280;2932;52.400;9.558;2023-03-24T14:00:17;99554.81;;;16.85;60.51
5812;BME280;2932;52.400;9.558;2023-03-24T14:08:10;99544.41;;;16.41;61.59
5812;BME280;2932;52.400;9.558;2023-03-24T14:10:45;99534.75;;;17.92;59.92
5812;BME280;2932;52.400;9.558;2023-03-24T14:15:51;99528.72;;;19.30;55.31
5812;BME280;2932;52.400;9.558;2023-03-24T14:23:40;99531.34;;;19.77;54.14
5812;BME280;2932;52.400;9.558;2023-03-24T14:28:46;99534.13;;;18.54;56.47
5812;BME280;2932;52.400;9.558;2023-03-24T14:33:42;99527.28;;;19.02;54.22
5812;BME280;2932;52.400;9.558;2023-03-24T14:36:09;99535.41;;;17.99;55.35
5812;BME280;2932;52.400;9.558;2023-03-24T14:38:43;99534.63;;;17.99;55.44
5812;BME280;2932;52.400;9.558;2023-03-24T14:41:16;99545.72;;;17.79;57.19
5812;BME280;2932;52.400;9.558;2023-03-24T14:51:41;99596.97;;;14.53;68.18
5812;BME280;2932;52.400;9.558;2023-03-24T14:54:36;99592.13;;;15.18;67.81
5812;BME280;2932;52.400;9.558;2023-03-24T14:57:03;99575.41;;;15.14;67.33
5812;BME280;2932;52.400;9.558;2023-03-24T14:59:46;99573.63;;;15.66;64.39
5812;BME280;2932;52.400;9.558;2023-03-24T15:02:33;99566.88;;;16.78;62.21
5812;BME280;2932;52.400;9.558;2023-03-24T15:07:39;99568.69;;;17.94;59.57
5812;BME280;2932;52.400;9.558;2023-03-24T15:10:05;99557.06;;;18.22;57.66
5812;BME280;2932;52.400;9.558;2023-03-24T15:12:31;99546.34;;;18.41;58.21
5812;BME280;2932;52.400;9.558;2023-03-24T15:14:56;99540.78;;;19.47;56.61
5812;BME280;2932;52.400;9.558;2023-03-24T15:17:23;99546.72;;;19.52;55.07
5812;BME280;2932;52.400;9.558;2023-03-24T15:19:52;99541.56;;;19.67;54.61
5812;BME280;2932;52.400;9.558;2023-03-24T15:22:19;99538.78;;;19.27;55.47
5812;BME280;2932;52.400;9.558;2023-03-24T15:24:50;99547.31;;;19.80;54.19
5812;BME280;2932;52.400;9.558;2023-03-24T15:27:17;99539.44;;;20.07;53.69
5812;BME280;2932;52.400;9.558;2023-03-24T15:29:45;99551.00;;;19.17;54.65
5812;BME280;2932;52.400;9.558;2023-03-24T15:32:18;99544.06;;;17.82;57.63
5812;BME280;2932;52.400;9.558;2023-03-24T15:34:51;99545.44;;;17.70;58.21
5812;BME280;2932;52.400;9.558;2023-03-24T15:37:32;99541.97;;;17.89;58.14
5812;BME280;2932;52.400;9.558;2023-03-24T15:39:58;99555.84;;;17.36;59.37
5812;BME280;2932;52.400;9.558;2023-03-24T15:42:24;99565.44;;;16.56;60.48
5812;BME280;2932;52.400;9.558;2023-03-24T15:44:51;99566.50;;;16.76;60.75
5812;BME280;2932;52.400;9.558;2023-03-24T15:47:26;99576.16;;;16.64;60.78
5812;BME280;2932;52.400;9.558;2023-03-24T15:49:57;99552.47;;;17.17;61.62
5812;BME280;2932;52.400;9.558;2023-03-24T15:52:33;99549.63;;;17.21;61.96
5812;BME280;2932;52.400;9.558;2023-03-24T15:55:25;99549.41;;;17.39;62.01
5812;BME280;2932;52.400;9.558;2023-03-24T15:57:52;99548.97;;;17.10;62.65